createdAt,value
2018-05-04T00:02:01.088Z,90.00
2018-05-04T00:04:28.767Z,91.90
2018-05-04T00:06:56.398Z,92.50
2018-05-04T00:09:24.035Z,93.50
2018-05-04T00:11:52.459Z,93.90
2018-05-04T00:14:20.095Z,93.90
2018-05-04T00:16:47.778Z,93.50
2018-05-04T00:19:15.415Z,93.70
2018-05-04T00:21:43.078Z,94.80
2018-05-04T00:24:10.711Z,94.50
2018-05-04T00:26:40.088Z,94.70
2018-05-04T00:29:08.253Z,94.70
2018-05-04T00:31:35.930Z,95.20
2018-05-04T00:34:03.577Z,96.00
2018-05-04T00:36:31.246Z,96.50
2018-05-04T00:38:58.898Z,96.80
2018-05-04T00:41:26.555Z,97.00
2018-05-04T00:43:54.192Z,97.00
2018-05-04T00:46:21.864Z,97.60
2018-05-04T00:48:49.525Z,97.30
2018-05-04T00:51:17.194Z,97.40
2018-05-04T00:53:56.789Z,97.60
2018-05-04T00:56:24.472Z,97.40
2018-05-04T00:58:52.164Z,98.20
2018-05-04T01:01:19.823Z,97.90
2018-05-04T01:03:47.482Z,98.50
2018-05-04T01:06:15.153Z,99.30
2018-05-04T01:08:42.830Z,99.00
2018-05-04T01:11:10.467Z,98.20
2018-05-04T01:13:39.150Z,98.50
2018-05-04T01:16:06.805Z,98.90
2018-05-04T01:18:34.491Z,98.60
2018-05-04T01:21:02.141Z,98.60
2018-05-04T01:23:29.820Z,98.70
2018-05-04T01:25:58.249Z,99.80
2018-05-04T01:28:25.911Z,99.80
2018-05-04T01:30:53.553Z,99.90
2018-05-04T01:33:21.256Z,99.90
2018-05-04T01:35:48.911Z,99.70
2018-05-04T01:38:16.615Z,99.90
2018-05-04T01:40:45.034Z,99.90
2018-05-04T01:43:12.671Z,99.90
2018-05-04T01:45:41.102Z,99.90
2018-05-04T01:48:09.866Z,99.90
2018-05-04T01:50:38.259Z,99.90
2018-05-04T01:53:05.911Z,99.90
2018-05-04T01:55:33.590Z,99.90
2018-05-04T01:58:01.231Z,99.90
2018-05-04T02:00:28.910Z,99.90
2018-05-04T02:02:56.566Z,99.90
2018-05-04T02:05:24.236Z,99.90
2018-05-04T02:07:51.901Z,99.90
2018-05-04T02:10:19.570Z,99.90
2018-05-04T02:12:47.220Z,99.90
2018-05-04T02:15:15.686Z,99.90
2018-05-04T02:17:43.350Z,99.90
2018-05-04T02:20:11.004Z,99.90
2018-05-04T02:22:39.673Z,99.90
2018-05-04T02:25:07.380Z,99.90
2018-05-04T02:27:35.823Z,99.90
2018-05-04T02:30:04.331Z,99.90
2018-05-04T02:32:31.983Z,99.90
2018-05-04T02:34:59.636Z,99.90
2018-05-04T02:37:27.314Z,99.90
2018-05-04T02:39:54.970Z,99.90
2018-05-04T02:42:22.645Z,99.90
2018-05-04T02:44:50.288Z,99.90
2018-05-04T02:47:17.963Z,99.90
2018-05-04T02:49:45.620Z,99.90
2018-05-04T02:52:13.290Z,99.90
2018-05-04T02:54:40.936Z,99.90
2018-05-04T02:57:10.001Z,99.90
2018-05-04T02:59:38.286Z,99.90
2018-05-04T03:02:05.953Z,99.90
2018-05-04T03:04:33.609Z,99.90
2018-05-04T03:07:01.293Z,99.90
2018-05-04T03:09:28.947Z,99.90
2018-05-04T03:11:56.621Z,99.90
2018-05-04T03:14:24.256Z,99.90
2018-05-04T03:16:51.941Z,99.90
2018-05-04T03:19:19.601Z,99.90
2018-05-04T03:21:47.253Z,99.90
2018-05-04T03:24:14.925Z,99.90
2018-05-04T03:26:42.577Z,99.90
2018-05-04T03:29:10.250Z,99.90
2018-05-04T03:31:38.308Z,99.90
2018-05-04T03:34:05.978Z,99.90
2018-05-04T03:36:33.618Z,99.90
2018-05-04T03:39:01.279Z,99.90
2018-05-04T03:41:28.932Z,99.90
2018-05-04T03:43:56.607Z,99.90
2018-05-04T03:46:25.105Z,99.90
2018-05-04T03:48:52.773Z,99.90
2018-05-04T03:51:20.436Z,99.90
2018-05-04T03:53:48.116Z,99.90
2018-05-04T03:56:16.526Z,99.90
2018-05-04T03:58:56.194Z,99.90
2018-05-04T04:01:35.849Z,99.90
2018-05-04T04:04:14.530Z,99.90
2018-05-04T04:06:42.237Z,99.90
2018-05-04T04:09:09.895Z,99.90
2018-05-04T04:11:38.263Z,99.90
2018-05-04T04:14:05.919Z,99.90
2018-05-04T04:16:34.347Z,99.90
2018-05-04T04:19:02.769Z,99.90
2018-05-04T04:21:30.446Z,99.90
2018-05-04T04:23:58.097Z,99.90
2018-05-04T04:26:25.779Z,99.90
2018-05-04T04:28:53.437Z,99.90
2018-05-04T04:31:21.113Z,99.90
2018-05-04T04:33:48.766Z,99.90
2018-05-04T04:36:16.439Z,99.90
2018-05-04T04:38:44.119Z,99.90
2018-05-04T04:41:12.591Z,99.90
2018-05-04T04:43:41.010Z,99.90
2018-05-04T04:46:09.645Z,99.90
2018-05-04T04:48:37.314Z,99.90
2018-05-04T04:51:05.711Z,99.90
2018-05-04T04:53:33.388Z,99.90
2018-05-04T04:56:01.044Z,99.90
2018-05-04T04:58:28.720Z,99.90
2018-05-04T05:00:56.355Z,99.90
2018-05-04T05:03:24.779Z,99.90
2018-05-04T05:05:52.425Z,99.90
2018-05-04T05:08:20.099Z,99.90
2018-05-04T05:10:47.753Z,99.90
2018-05-04T05:13:15.427Z,99.90
2018-05-04T05:15:43.086Z,99.90
2018-05-04T05:18:10.762Z,99.90
2018-05-04T05:20:39.168Z,99.90
2018-05-04T05:23:08.426Z,99.90
2018-05-04T05:25:36.085Z,99.90
2018-05-04T05:28:03.756Z,99.90
2018-05-04T05:30:31.409Z,99.90
2018-05-04T05:32:59.070Z,99.90
2018-05-04T05:35:26.737Z,99.90
2018-05-04T05:37:54.408Z,99.90
2018-05-04T05:40:22.078Z,99.90
2018-05-04T05:42:49.734Z,99.90
2018-05-04T05:45:17.418Z,99.90
2018-05-04T05:47:45.838Z,99.90
2018-05-04T05:50:13.523Z,99.90
2018-05-04T05:52:41.169Z,99.90
2018-05-04T05:55:08.861Z,99.90
2018-05-04T05:57:36.546Z,99.90
2018-05-04T06:00:04.999Z,99.90
2018-05-04T06:02:32.656Z,99.90
2018-05-04T06:05:00.333Z,99.90
2018-05-04T06:07:28.087Z,99.90
2018-05-04T06:09:55.774Z,99.90
2018-05-04T06:12:24.204Z,99.90
2018-05-04T06:14:51.900Z,99.90
2018-05-04T06:17:19.561Z,99.90
2018-05-04T06:19:47.223Z,99.90
2018-05-04T06:22:14.906Z,99.90
2018-05-04T06:24:43.346Z,99.90
2018-05-04T06:27:11.038Z,99.90
2018-05-04T06:29:40.124Z,99.90
2018-05-04T06:32:10.068Z,99.90
2018-05-04T06:34:40.037Z,99.90
2018-05-04T06:37:08.499Z,99.90
2018-05-04T06:39:36.200Z,99.90
2018-05-04T06:42:03.850Z,99.90
2018-05-04T06:44:31.506Z,99.90
2018-05-04T06:46:59.189Z,99.90
2018-05-04T06:49:27.597Z,99.50
2018-05-04T06:51:55.283Z,99.50
2018-05-04T06:54:22.947Z,99.50
2018-05-04T06:56:50.634Z,99.90
2018-05-04T06:59:18.370Z,97.40
2018-05-04T07:01:46.011Z,98.40
2018-05-04T07:04:13.678Z,96.60
2018-05-04T07:06:41.362Z,96.10
2018-05-04T07:09:09.019Z,96.00
2018-05-04T07:11:36.701Z,94.90
2018-05-04T07:14:04.364Z,96.30
2018-05-04T07:16:32.067Z,95.80
2018-05-04T07:18:59.731Z,93.20
2018-05-04T07:21:27.371Z,92.50
2018-05-04T07:23:55.825Z,92.90
2018-05-04T07:26:23.493Z,92.90
2018-05-04T07:28:51.170Z,88.30
2018-05-04T07:31:19.604Z,90.70
2018-05-04T07:33:47.298Z,90.70
2018-05-04T07:36:14.942Z,87.90
2018-05-04T07:38:42.619Z,87.10
2018-05-04T07:41:10.262Z,83.50
2018-05-04T07:43:37.943Z,84.80
2018-05-04T07:46:05.604Z,80.00
2018-05-04T07:48:33.280Z,86.60
2018-05-04T07:51:01.729Z,82.20
2018-05-04T07:53:29.390Z,82.10
2018-05-04T07:55:57.061Z,82.30
2018-05-04T07:58:24.722Z,79.40
2018-05-04T08:00:52.401Z,78.70
2018-05-04T08:03:20.830Z,75.80
2018-05-04T08:05:48.522Z,75.70
2018-05-04T08:08:16.185Z,71.10
2018-05-04T08:10:43.858Z,72.70
2018-05-04T08:13:12.284Z,65.90
2018-05-04T08:15:39.992Z,66.00
2018-05-04T08:18:08.546Z,65.90
2018-05-04T08:20:36.235Z,71.60
2018-05-04T08:23:03.880Z,64.90
2018-05-04T08:25:31.567Z,70.80
2018-05-04T08:27:59.978Z,66.00
2018-05-04T08:30:27.671Z,66.10
2018-05-04T08:32:55.342Z,67.70
2018-05-04T08:35:23.040Z,62.50
2018-05-04T08:37:51.457Z,67.00
2018-05-04T08:40:19.123Z,67.10
2018-05-04T08:42:46.763Z,62.90
2018-05-04T08:45:14.424Z,62.00
2018-05-04T08:47:42.094Z,63.20
2018-05-04T08:50:09.932Z,64.00
2018-05-04T08:52:39.142Z,60.00
2018-05-04T08:55:06.803Z,60.10
2018-05-04T08:57:34.480Z,59.00
2018-05-04T09:00:02.165Z,58.90
2018-05-04T09:02:29.846Z,54.70
2018-05-04T09:04:57.509Z,58.60
2018-05-04T09:07:25.177Z,59.30
2018-05-04T09:09:52.830Z,58.90
2018-05-04T09:12:20.514Z,54.50
2018-05-04T09:14:48.937Z,55.40
2018-05-04T09:17:16.642Z,55.40
2018-05-04T09:19:45.088Z,55.50
2018-05-04T09:22:12.738Z,55.80
2018-05-04T09:24:40.723Z,52.10
2018-05-04T09:27:09.153Z,50.20
2018-05-04T09:29:38.219Z,49.50
2018-05-04T09:32:05.877Z,49.50
2018-05-04T09:34:33.577Z,46.40
2018-05-04T09:37:01.237Z,46.90
2018-05-04T09:39:28.930Z,50.70
2018-05-04T09:41:56.621Z,47.90
2018-05-04T09:44:24.301Z,49.60
2018-05-04T09:46:52.713Z,50.50
2018-05-04T09:49:20.423Z,50.60
2018-05-04T09:51:48.086Z,51.00
2018-05-04T09:54:15.797Z,51.00
2018-05-04T09:56:43.458Z,43.30
2018-05-04T09:59:11.183Z,45.10
2018-05-04T10:01:38.839Z,51.20
2018-05-04T10:04:06.549Z,43.00
2018-05-04T10:06:34.205Z,44.30
2018-05-04T10:09:01.927Z,45.70
2018-05-04T10:11:29.625Z,43.50
2018-05-04T10:13:57.289Z,46.60
2018-05-04T10:16:24.974Z,45.60
2018-05-04T10:18:52.646Z,41.80
2018-05-04T10:21:20.327Z,48.30
2018-05-04T10:23:48.003Z,45.20
2018-05-04T10:26:15.679Z,42.70
2018-05-04T10:28:44.102Z,38.70
2018-05-04T10:31:11.790Z,38.70
2018-05-04T10:33:40.284Z,42.40
2018-05-04T10:36:07.975Z,42.60
2018-05-04T10:38:35.730Z,39.80
2018-05-04T10:41:03.319Z,41.80
2018-05-04T10:43:30.975Z,37.30
2018-05-04T10:45:58.644Z,38.70
2018-05-04T10:48:26.319Z,37.10
2018-05-04T10:50:54.000Z,42.10
2018-05-04T10:53:21.693Z,41.20
2018-05-04T10:55:50.127Z,41.70
2018-05-04T10:58:17.804Z,41.60
2018-05-04T11:00:45.471Z,43.00
2018-05-04T11:03:13.166Z,39.80
2018-05-04T11:05:40.822Z,41.00
2018-05-04T11:08:10.581Z,37.50
2018-05-04T11:10:39.385Z,37.50
2018-05-04T11:13:07.057Z,39.40
2018-05-04T11:15:34.724Z,43.10
2018-05-04T11:18:03.189Z,42.10
2018-05-04T11:20:30.845Z,42.20
2018-05-04T11:22:58.529Z,43.10
2018-05-04T11:25:26.966Z,40.50
2018-05-04T11:27:54.651Z,40.60
2018-05-04T11:30:22.309Z,40.90
2018-05-04T11:32:49.983Z,40.10
2018-05-04T11:35:17.648Z,36.30
2018-05-04T11:37:45.350Z,40.30
2018-05-04T11:40:13.006Z,39.30
2018-05-04T11:42:40.666Z,41.30
2018-05-04T11:45:09.141Z,39.90
2018-05-04T11:47:36.780Z,37.90
2018-05-04T11:50:05.218Z,37.60
2018-05-04T11:52:32.871Z,37.70
2018-05-04T11:55:00.549Z,37.00
2018-05-04T11:57:28.230Z,40.20
2018-05-04T11:59:55.906Z,39.90
2018-05-04T12:02:24.404Z,36.90
2018-05-04T12:04:52.067Z,37.00
2018-05-04T12:07:19.746Z,30.80
2018-05-04T12:09:47.446Z,31.30
2018-05-04T12:12:15.112Z,34.70
2018-05-04T12:14:42.794Z,35.70
2018-05-04T12:17:11.203Z,34.20
2018-05-04T12:19:38.881Z,33.90
2018-05-04T12:22:06.538Z,32.30
2018-05-04T12:24:34.198Z,34.80
2018-05-04T12:27:01.887Z,36.70
2018-05-04T12:29:29.546Z,37.20
2018-05-04T12:31:57.269Z,37.70
2018-05-04T12:34:24.926Z,35.30
2018-05-04T12:36:52.607Z,36.90
2018-05-04T12:39:20.253Z,31.10
2018-05-04T12:41:47.952Z,34.60
2018-05-04T12:44:15.618Z,34.70
2018-05-04T12:46:43.324Z,34.80
2018-05-04T12:49:11.756Z,32.30
2018-05-04T12:51:40.090Z,32.20
2018-05-04T12:54:08.257Z,29.40
2018-05-04T12:56:36.696Z,33.50
2018-05-04T12:59:04.344Z,33.60
2018-05-04T13:01:32.032Z,35.10
2018-05-04T13:03:59.689Z,33.40
2018-05-04T13:06:27.407Z,32.40
2018-05-04T13:08:55.829Z,31.70
2018-05-04T13:11:23.523Z,31.70
2018-05-04T13:13:51.950Z,34.40
2018-05-04T13:16:19.596Z,34.40
2018-05-04T13:18:47.274Z,36.00
2018-05-04T13:21:14.938Z,32.00
2018-05-04T13:23:42.622Z,31.00
2018-05-04T13:26:10.308Z,31.10
2018-05-04T13:28:39.677Z,31.70
2018-05-04T13:31:07.330Z,31.60
2018-05-04T13:33:35.013Z,31.60
2018-05-04T13:36:02.694Z,32.60
2018-05-04T13:38:31.144Z,33.40
2018-05-04T13:40:58.805Z,33.20
2018-05-04T13:43:26.489Z,30.30
2018-05-04T13:45:54.938Z,35.40
2018-05-04T13:48:22.626Z,35.40
2018-05-04T13:50:51.154Z,36.90
2018-05-04T13:53:19.703Z,33.50
2018-05-04T13:55:47.362Z,33.40
2018-05-04T13:58:15.797Z,33.40
2018-05-04T14:00:43.471Z,33.30
2018-05-04T14:03:11.146Z,36.70
2018-05-04T14:05:38.854Z,35.70
2018-05-04T14:08:06.519Z,38.10
2018-05-04T14:10:34.213Z,33.20
2018-05-04T14:13:01.872Z,35.90
2018-05-04T14:15:29.540Z,30.40
2018-05-04T14:17:57.206Z,34.50
2018-05-04T14:20:24.897Z,31.60
2018-05-04T14:22:52.558Z,35.90
2018-05-04T14:25:20.999Z,36.80
2018-05-04T14:27:48.740Z,36.80
2018-05-04T14:30:16.424Z,38.70
2018-05-04T14:32:44.087Z,33.70
2018-05-04T14:35:11.771Z,38.30
2018-05-04T14:37:40.204Z,32.50
2018-05-04T14:40:08.325Z,32.50
2018-05-04T14:42:36.765Z,33.30
2018-05-04T14:45:04.434Z,33.30
2018-05-04T14:47:32.117Z,33.70
2018-05-04T14:49:59.769Z,37.80
2018-05-04T14:52:27.450Z,38.40
2018-05-04T14:54:55.874Z,33.30
2018-05-04T14:57:23.558Z,33.30
2018-05-04T14:59:51.213Z,35.70
2018-05-04T15:02:18.901Z,36.10
2018-05-04T15:04:46.565Z,33.40
2018-05-04T15:07:14.253Z,34.90
2018-05-04T15:09:41.937Z,36.40
2018-05-04T15:12:10.332Z,32.00
2018-05-04T15:14:38.365Z,31.40
2018-05-04T15:17:06.041Z,33.90
2018-05-04T15:19:33.676Z,32.00
2018-05-04T15:22:02.116Z,34.60
2018-05-04T15:24:29.775Z,34.50
2018-05-04T15:26:57.463Z,32.60
2018-05-04T15:29:25.120Z,32.40
2018-05-04T15:31:52.777Z,31.60
2018-05-04T15:34:20.448Z,32.80
2018-05-04T15:36:48.209Z,32.70
2018-05-04T15:39:15.894Z,34.70
2018-05-04T15:41:44.302Z,29.40
2018-05-04T15:44:11.980Z,29.40
2018-05-04T15:46:40.787Z,30.80
2018-05-04T15:49:14.218Z,32.00
2018-05-04T15:51:48.329Z,29.80
2018-05-04T15:54:16.050Z,29.80
2018-05-04T15:56:43.715Z,32.90
2018-05-04T15:59:11.401Z,30.10
2018-05-04T16:01:40.570Z,27.80
2018-05-04T16:04:09.364Z,27.70
2018-05-04T16:06:37.029Z,30.00
2018-05-04T16:09:05.711Z,28.30
2018-05-04T16:11:33.375Z,32.10
2018-05-04T16:14:01.038Z,30.40
2018-05-04T16:16:28.723Z,29.30
2018-05-04T16:18:57.150Z,29.20
2018-05-04T16:21:24.823Z,29.10
2018-05-04T16:23:52.482Z,29.20
2018-05-04T16:26:20.166Z,28.00
2018-05-04T16:28:47.836Z,26.70
2018-05-04T16:31:16.282Z,27.20
2018-05-04T16:33:43.943Z,27.20
2018-05-04T16:36:11.608Z,27.90
2018-05-04T16:38:40.465Z,26.30
2018-05-04T16:41:09.299Z,25.30
2018-05-04T16:43:38.288Z,26.90
2018-05-04T16:46:06.787Z,24.80
2018-05-04T16:51:42.973Z,24.80
2018-05-04T16:54:10.625Z,24.40
2018-05-04T16:56:38.782Z,24.90
2018-05-04T16:59:06.443Z,27.60
2018-05-04T17:01:34.134Z,26.70
2018-05-04T17:04:02.594Z,25.30
2018-05-04T17:06:30.319Z,25.20
2018-05-04T17:08:58.076Z,27.20
2018-05-04T17:11:25.737Z,25.80
2018-05-04T17:13:53.422Z,28.00
2018-05-04T17:16:21.084Z,28.50
2018-05-04T17:18:48.762Z,27.80
2018-05-04T17:21:16.423Z,30.00
2018-05-04T17:23:44.107Z,29.50
2018-05-04T17:26:12.530Z,31.30
2018-05-04T17:28:40.273Z,31.30
2018-05-04T17:31:08.383Z,32.90
2018-05-04T17:33:36.071Z,32.80
2018-05-04T17:36:03.803Z,34.20
2018-05-04T17:38:31.498Z,35.50
2018-05-04T17:40:59.152Z,36.50
2018-05-04T17:43:26.831Z,35.90
2018-05-04T17:45:55.259Z,36.20
2018-05-04T17:48:22.944Z,36.20
2018-05-04T17:50:50.589Z,36.60
2018-05-04T17:53:18.277Z,37.70
2018-05-04T17:55:45.982Z,37.70
2018-05-04T17:58:13.669Z,40.50
2018-05-04T18:00:41.344Z,39.50
2018-05-04T18:03:09.002Z,41.30
2018-05-04T18:05:36.691Z,41.70
2018-05-04T18:08:04.354Z,41.20
2018-05-04T18:10:32.052Z,41.20
2018-05-04T18:12:59.713Z,42.10
2018-05-04T18:15:27.411Z,41.10
2018-05-04T18:17:55.072Z,41.70
2018-05-04T18:20:22.757Z,43.20
2018-05-04T18:22:50.403Z,43.00
2018-05-04T18:25:18.077Z,43.80
2018-05-04T18:27:45.780Z,43.20
2018-05-04T18:30:13.448Z,44.90
2018-05-04T18:32:41.105Z,45.80
2018-05-04T18:35:09.946Z,45.90
2018-05-04T18:37:38.612Z,46.20
2018-05-04T18:40:06.322Z,47.40
2018-05-04T18:42:34.755Z,46.70
2018-05-04T18:45:02.552Z,46.70
2018-05-04T18:47:30.181Z,48.20
2018-05-04T18:49:57.848Z,48.60
2018-05-04T18:52:25.529Z,48.20
2018-05-04T18:54:53.994Z,49.70
2018-05-04T18:57:21.679Z,49.60
2018-05-04T18:59:49.338Z,49.40
2018-05-04T19:02:22.737Z,49.30
2018-05-04T19:04:51.157Z,49.90
2018-05-04T19:07:19.614Z,50.30
2018-05-04T19:09:47.271Z,50.30
2018-05-04T19:12:14.946Z,50.30
2018-05-04T19:14:42.636Z,50.80
2018-05-04T19:17:10.325Z,51.10
2018-05-04T19:19:38.570Z,50.90
2018-05-04T19:22:06.265Z,52.20
2018-05-04T19:24:33.914Z,51.60
2018-05-04T19:27:01.583Z,51.50
2018-05-04T19:29:29.262Z,51.60
2018-05-04T19:31:56.954Z,51.30
2018-05-04T19:34:24.684Z,52.50
2018-05-04T19:36:52.330Z,51.10
2018-05-04T19:39:20.039Z,51.30
2018-05-04T19:41:47.705Z,51.90
2018-05-04T19:44:15.365Z,52.10
2018-05-04T19:46:43.025Z,52.70
2018-05-04T19:49:10.793Z,52.10
2018-05-04T19:51:39.730Z,52.30
2018-05-04T19:54:07.403Z,53.50
2018-05-04T19:56:35.062Z,53.30
2018-05-04T19:59:02.806Z,53.10
2018-05-04T20:01:30.467Z,53.00
2018-05-04T20:03:58.154Z,53.10
2018-05-04T20:06:25.796Z,54.20
2018-05-04T20:08:53.481Z,53.70
2018-05-04T20:11:21.902Z,54.70
2018-05-04T20:13:50.329Z,55.30
2018-05-04T20:16:18.016Z,54.90
2018-05-04T20:18:46.431Z,55.80
2018-05-04T20:21:14.106Z,55.90
2018-05-04T20:23:41.778Z,56.60
2018-05-04T20:26:10.199Z,57.50
2018-05-04T20:28:39.649Z,57.70
2018-05-04T20:31:07.334Z,57.80
2018-05-04T20:33:34.980Z,58.30
2018-05-04T20:36:02.662Z,58.70
2018-05-04T20:38:30.305Z,59.10
2018-05-04T20:40:57.998Z,59.20
2018-05-04T20:43:26.431Z,60.00
2018-05-04T20:45:54.131Z,60.10
2018-05-04T20:48:22.560Z,62.50
2018-05-04T20:50:50.209Z,62.30
2018-05-04T20:53:17.894Z,63.20
2018-05-04T20:55:45.562Z,64.20
2018-05-04T20:58:13.250Z,65.60
2018-05-04T21:00:40.914Z,66.10
2018-05-04T21:03:10.285Z,68.20
2018-05-04T21:05:37.947Z,70.20
2018-05-04T21:08:05.618Z,71.60
2018-05-04T21:10:33.269Z,73.10
2018-05-04T21:13:00.961Z,76.90
2018-05-04T21:15:28.622Z,78.70
2018-05-04T21:17:56.291Z,80.60
2018-05-04T21:20:23.941Z,83.80
2018-05-04T21:22:51.627Z,84.20
2018-05-04T21:25:20.062Z,88.80
2018-05-04T21:27:47.758Z,88.80
2018-05-04T21:30:16.175Z,90.70
2018-05-04T21:32:43.869Z,90.70
2018-05-04T21:35:11.526Z,91.10
2018-05-04T21:37:40.240Z,91.80
2018-05-04T21:40:09.622Z,92.60
2018-05-04T21:42:37.268Z,92.60
2018-05-04T21:45:04.939Z,93.00
2018-05-04T21:47:32.597Z,93.20
2018-05-04T21:50:00.269Z,94.10
2018-05-04T21:52:27.931Z,94.10
2018-05-04T21:54:55.599Z,94.90
2018-05-04T21:57:23.289Z,94.90
2018-05-04T21:59:51.738Z,95.60
2018-05-04T22:02:19.402Z,95.60
2018-05-04T22:04:47.163Z,95.30
2018-05-04T22:07:14.767Z,95.40
2018-05-04T22:09:42.445Z,95.10
2018-05-04T22:12:10.100Z,95.80
2018-05-04T22:14:38.296Z,95.70
2018-05-04T22:17:05.944Z,96.30
2018-05-04T22:19:33.635Z,96.00
2018-05-04T22:22:01.287Z,96.50
2018-05-04T22:24:28.944Z,96.70
2018-05-04T22:26:56.622Z,96.90
2018-05-04T22:29:24.283Z,97.20
2018-05-04T22:31:51.966Z,96.90
2018-05-04T22:34:20.369Z,97.60
2018-05-04T22:36:48.058Z,97.50
2018-05-04T22:39:15.782Z,97.40
2018-05-04T22:41:43.424Z,97.30
2018-05-04T22:44:11.832Z,97.90
2018-05-04T22:46:40.097Z,98.40
2018-05-04T22:49:09.232Z,98.60
2018-05-04T22:51:36.913Z,98.60
2018-05-04T22:54:04.569Z,98.30
2018-05-04T22:56:32.286Z,98.70
2018-05-04T22:58:59.921Z,98.00
2018-05-04T23:01:27.593Z,98.80
2018-05-04T23:03:56.022Z,98.60
2018-05-04T23:06:23.709Z,98.60
2018-05-04T23:08:51.366Z,98.30
2018-05-04T23:11:19.053Z,98.30
2018-05-04T23:13:47.477Z,98.90
2018-05-04T23:16:15.129Z,98.90
2018-05-04T23:18:42.811Z,98.70
2018-05-04T23:21:10.471Z,98.80
2018-05-04T23:23:39.268Z,99.00
2018-05-04T23:26:06.933Z,98.90
2018-05-04T23:28:34.605Z,99.80
2018-05-04T23:31:02.256Z,99.10
2018-05-04T23:33:29.930Z,99.50
2018-05-04T23:35:57.585Z,99.40
2018-05-04T23:38:25.270Z,99.90
2018-05-04T23:40:53.687Z,99.60
2018-05-04T23:43:21.369Z,99.60
2018-05-04T23:45:49.021Z,99.60
2018-05-04T23:48:16.707Z,99.90
2018-05-04T23:50:44.365Z,99.90
2018-05-04T23:53:12.065Z,99.90
2018-05-04T23:55:40.514Z,99.90
2018-05-04T23:58:09.409Z,99.90
